Time;durP1;ratioP1;P1;durP2;ratioP2;P2;SDS_P1;SDS_P2;PMS_P1;PMS_P2;Temp;Humidity;BMP_temperature;BMP_pressure;BME280_temperature;BME280_humidity;BME280_pressure;Samples;Min_cycle;Max_cycle;Signal;HPM_P1;HPM_P2
2023/06/09 00:02:25;;;;;;;13.20;10.20;;;;;;;21.04;92.76;100463.94;4918887;29;20056;-77
2023/06/09 00:04:54;;;;;;;18.13;11.13;;;;;;;21.13;91.79;100470.16;4918614;29;20048;-77
2023/06/09 00:07:22;;;;;;;15.85;10.70;;;;;;;21.18;92.04;100464.34;4918591;29;20044;-77
2023/06/09 00:09:50;;;;;;;18.17;11.05;;;;;;;21.14;92.59;100460.66;4918779;29;20496;-77
2023/06/09 00:12:18;;;;;;;15.43;9.80;;;;;;;21.02;93.52;100457.91;4918635;29;20151;-77
2023/06/09 00:14:46;;;;;;;17.50;11.23;;;;;;;20.86;93.38;100455.09;4918636;29;20075;-77
2023/06/09 00:17:14;;;;;;;16.50;10.75;;;;;;;20.84;93.73;100458.19;4918606;29;20495;-77
2023/06/09 00:19:42;;;;;;;19.08;10.82;;;;;;;20.84;93.67;100458.19;4918526;29;20043;-77
2023/06/09 00:22:13;;;;;;;18.20;11.75;;;;;;;20.77;94.41;100456.00;4918613;29;20047;-77
2023/06/09 00:24:44;;;;;;;16.70;11.18;;;;;;;20.88;93.82;100450.78;4918369;29;20051;-77
2023/06/09 00:27:12;;;;;;;17.73;11.77;;;;;;;20.80;94.22;100454.50;4918338;29;20056;-77
2023/06/09 00:29:40;;;;;;;18.95;11.35;;;;;;;20.63;94.90;100447.25;4918047;29;20052;-77
2023/06/09 00:32:08;;;;;;;17.45;11.13;;;;;;;20.75;94.63;100449.19;4917952;29;20048;-77
2023/06/09 00:34:36;;;;;;;17.10;11.57;;;;;;;20.70;94.47;100446.63;4901445;29;20048;-77
2023/06/09 00:37:05;;;;;;;19.85;12.13;;;;;;;20.75;94.58;100454.75;4918241;29;20391;-77
2023/06/09 00:39:33;;;;;;;16.27;11.55;;;;;;;20.71;94.54;100453.84;4901130;29;20118;-77
2023/06/09 00:42:01;;;;;;;20.92;12.30;;;;;;;20.71;94.88;100453.84;4936184;29;20490;-77
2023/06/09 00:44:29;;;;;;;18.48;11.27;;;;;;;20.71;95.36;100448.28;4928055;29;20037;-77
2023/06/09 00:46:57;;;;;;;17.50;12.30;;;;;;;20.59;95.05;100435.22;4917892;29;20052;-77
2023/06/09 00:49:26;;;;;;;16.55;11.30;;;;;;;20.65;95.09;100434.63;4918178;29;20071;-77
2023/06/09 00:51:54;;;;;;;16.02;11.55;;;;;;;20.73;94.40;100432.03;4917773;29;20055;-78
2023/06/09 00:54:22;;;;;;;21.27;12.38;;;;;;;20.71;95.22;100429.63;4917511;29;20059;-78
2023/06/09 00:56:50;;;;;;;14.90;11.15;;;;;;;20.74;94.81;100419.75;4900970;29;20040;-78
2023/06/09 00:59:19;;;;;;;19.25;11.70;;;;;;;20.75;96.20;100424.16;4901011;29;20044;-77
2023/06/09 01:01:48;;;;;;;18.25;10.75;;;;;;;20.78;95.68;100420.69;4901227;29;20381;-77
2023/06/09 01:04:16;;;;;;;16.98;11.27;;;;;;;20.84;94.82;100427.59;4917869;29;20051;-77
2023/06/09 01:07:10;;;;;;;16.63;10.43;;;;;;;20.85;94.72;100420.09;4917354;29;20059;-77
2023/06/09 01:10:14;;;;;;;19.05;11.00;;;;;;;20.97;95.02;100420.03;4912794;29;20413;-77
2023/06/09 01:12:47;;;;;;;18.27;10.90;;;;;;;20.96;93.71;100418.41;4917778;29;20063;-77
2023/06/09 01:15:25;;;;;;;16.20;10.85;;;;;;;20.93;94.16;100416.34;4916121;29;20044;-78
2023/06/09 01:18:02;;;;;;;17.70;11.20;;;;;;;20.94;93.79;100413.22;4917647;29;20072;-78
2023/06/09 01:21:02;;;;;;;17.55;11.40;;;;;;;20.70;95.77;100407.72;4916972;29;20040;-77
2023/06/09 01:23:51;;;;;;;17.50;10.63;;;;;;;20.83;94.29;100398.19;4917090;29;20075;-78
2023/06/09 01:26:21;;;;;;;16.42;11.35;;;;;;;20.76;95.13;100400.75;4917245;29;20055;-78
2023/06/09 01:28:51;;;;;;;16.65;10.93;;;;;;;20.79;94.51;100388.91;4915776;29;20411;-78
2023/06/09 01:31:19;;;;;;;19.10;11.45;;;;;;;20.75;96.54;100401.91;4917049;29;20059;-78
2023/06/09 01:33:48;;;;;;;17.08;11.23;;;;;;;20.69;96.07;100404.16;4917229;29;20056;-78
2023/06/09 01:36:16;;;;;;;15.35;10.52;;;;;;;20.70;96.22;100408.53;4917245;29;20056;-78
2023/06/09 01:38:46;;;;;;;18.10;11.20;;;;;;;20.79;95.58;100416.72;4916563;29;20403;-78
2023/06/09 01:41:14;;;;;;;16.60;11.07;;;;;;;20.84;95.45;100412.88;4917150;29;20048;-78
2023/06/09 01:43:42;;;;;;;19.45;10.95;;;;;;;20.87;96.04;100415.78;4915498;29;20043;-77
2023/06/09 01:46:10;;;;;;;15.18;10.82;;;;;;;20.91;95.85;100413.09;4916658;29;20047;-78
2023/06/09 01:49:02;;;;;;;18.67;11.18;;;;;;;20.80;95.56;100404.44;4916644;29;20071;-78
2023/06/09 01:51:39;;;;;;;16.20;10.38;;;;;;;20.89;95.98;100405.13;4917022;29;20044;-77
2023/06/09 01:54:12;;;;;;;15.52;10.52;;;;;;;20.76;95.90;100396.00;4898032;29;20488;-77
2023/06/09 01:56:46;;;;;;;18.75;9.95;;;;;;;20.74;96.14;100394.72;4881513;29;20060;-77
2023/06/09 01:59:23;;;;;;;15.85;9.77;;;;;;;20.74;96.44;100390.00;4881382;29;20051;-78
2023/06/09 02:01:53;;;;;;;14.50;9.70;;;;;;;20.78;95.60;100387.31;4886287;29;20040;-77
2023/06/09 02:04:24;;;;;;;15.63;9.48;;;;;;;20.70;95.43;100385.47;4916194;29;20497;-77
2023/06/09 02:06:53;;;;;;;13.63;9.00;;;;;;;20.71;95.32;100389.91;4916380;29;20052;-77
2023/06/09 02:09:22;;;;;;;13.77;9.18;;;;;;;20.61;95.94;100391.19;4916656;29;20095;-77
2023/06/09 02:11:53;;;;;;;11.55;8.40;;;;;;;20.56;96.32;100395.03;4883972;29;20059;-77
2023/06/09 02:14:22;;;;;;;16.02;8.93;;;;;;;20.57;96.20;100387.50;4899746;29;20067;-77
2023/06/09 02:16:53;;;;;;;13.20;9.63;;;;;;;20.46;96.30;100389.97;4899807;29;20498;-77
2023/06/09 02:19:22;;;;;;;12.43;8.63;;;;;;;20.49;97.22;100398.41;4898687;29;20055;-77
2023/06/09 02:21:50;;;;;;;13.82;9.60;;;;;;;20.47;97.15;100397.16;4899570;29;20040;-77
2023/06/09 02:24:18;;;;;;;13.85;9.32;;;;;;;20.44;97.99;100387.56;4915205;29;20055;-78
2023/06/09 02:26:50;;;;;;;14.63;9.85;;;;;;;20.39;98.38;100379.47;4914977;29;20048;-78
2023/06/09 02:29:18;;;;;;;13.30;9.80;;;;;;;20.40;98.71;100384.66;4914111;29;20061;-78
2023/06/09 02:31:46;;;;;;;13.30;9.43;;;;;;;20.35;98.33;100379.38;4916201;29;20051;-78
2023/06/09 02:34:14;;;;;;;14.13;9.63;;;;;;;20.43;97.67;100388.69;4899278;29;20060;-77
2023/06/09 02:36:42;;;;;;;12.63;8.63;;;;;;;20.46;98.25;100381.63;4916178;29;20040;-77
2023/06/09 02:39:11;;;;;;;13.93;9.80;;;;;;;20.53;97.82;100379.06;4914833;29;20566;-77
2023/06/09 02:41:38;;;;;;;12.00;8.95;;;;;;;20.43;98.17;100385.13;4915986;29;20376;-77
2023/06/09 02:44:06;;;;;;;14.45;9.40;;;;;;;20.45;99.31;100389.16;4914560;29;20059;-77
2023/06/09 02:46:35;;;;;;;15.32;10.02;;;;;;;20.41;99.14;100379.91;4883580;29;20043;-77
2023/06/09 02:49:03;;;;;;;16.83;10.20;;;;;;;20.49;99.17;100378.16;4914406;29;20044;-77
2023/06/09 02:51:31;;;;;;;15.98;10.98;;;;;;;20.46;98.91;100378.84;4899010;29;20044;-77
2023/06/09 02:54:01;;;;;;;15.73;10.23;;;;;;;20.59;97.72;100377.66;4913434;29;20052;-77
2023/06/09 02:56:29;;;;;;;13.25;9.40;;;;;;;20.63;97.74;100381.34;4898745;29;20060;-77
2023/06/09 02:58:57;;;;;;;14.30;9.35;;;;;;;20.77;97.11;100386.50;4915021;29;20495;-77
2023/06/09 03:01:28;;;;;;;15.15;9.23;;;;;;;20.75;96.88;100380.47;4904823;29;20376;-77
2023/06/09 03:03:58;;;;;;;12.98;9.07;;;;;;;20.72;97.17;100394.28;4914851;29;20048;-77
2023/06/09 03:06:27;;;;;;;11.20;8.15;;;;;;;20.65;98.13;100384.59;4899069;29;20044;-77
2023/06/09 03:08:55;;;;;;;11.90;8.98;;;;;;;20.41;100.00;100380.72;4898650;29;20048;-77
2023/06/09 03:11:24;;;;;;;12.63;8.43;;;;;;;20.39;99.72;100380.25;4898415;29;20051;-77
2023/06/09 03:13:52;;;;;;;11.32;8.85;;;;;;;20.42;100.00;100367.63;4915886;29;20049;-77
2023/06/09 03:16:20;;;;;;;11.13;8.13;;;;;;;20.32;100.00;100376.47;4915347;29;20403;-77
2023/06/09 03:18:48;;;;;;;15.07;9.25;;;;;;;20.36;99.66;100386.53;4915861;29;20064;-77
2023/06/09 03:21:16;;;;;;;11.25;7.75;;;;;;;20.36;100.00;100388.50;4899096;29;20048;-77
2023/06/09 03:23:44;;;;;;;13.10;8.50;;;;;;;20.40;99.92;100384.66;4898963;29;20044;-77
2023/06/09 03:26:13;;;;;;;12.75;7.65;;;;;;;20.29;100.00;100378.00;4914534;29;20044;-75
2023/06/09 03:28:41;;;;;;;13.23;8.18;;;;;;;20.29;100.00;100378.00;4914036;29;20073;-77
2023/06/09 03:31:09;;;;;;;12.30;8.57;;;;;;;20.19;100.00;100372.91;4915796;29;20044;-77
2023/06/09 03:33:38;;;;;;;13.68;8.77;;;;;;;20.27;100.00;100374.75;4902577;29;20048;-77
2023/06/09 03:36:08;;;;;;;14.10;8.80;;;;;;;20.31;99.61;100375.66;4886753;29;20063;-77
2023/06/09 03:38:40;;;;;;;12.95;8.43;;;;;;;20.32;100.00;100380.06;4902671;29;20052;-77
2023/06/09 03:41:09;;;;;;;9.98;8.00;;;;;;;20.38;100.00;100388.97;4895159;29;20055;-77
2023/06/09 03:43:37;;;;;;;12.18;8.70;;;;;;;20.24;100.00;100383.78;4899235;29;20044;-77
2023/06/09 03:46:05;;;;;;;12.57;9.45;;;;;;;20.19;100.00;100373.72;4883455;29;20059;-77
2023/06/09 03:48:34;;;;;;;12.82;8.65;;;;;;;20.20;100.00;100388.41;4898937;29;20052;-77
2023/06/09 03:51:02;;;;;;;15.40;9.10;;;;;;;20.24;100.00;100389.34;4900327;29;20049;-77
2023/06/09 03:53:30;;;;;;;13.82;9.35;;;;;;;20.46;98.98;100384.41;4898987;29;20481;-77
2023/06/09 03:56:01;;;;;;;14.00;8.80;;;;;;;20.60;97.82;100393.19;4900129;29;20049;-77
2023/06/09 03:58:29;;;;;;;14.32;10.45;;;;;;;20.60;96.39;100392.34;4898765;29;20045;-77
2023/06/09 04:00:58;;;;;;;19.35;11.07;;;;;;;20.31;98.50;100392.34;4898763;29;20052;-77
2023/06/09 04:03:27;;;;;;;17.13;11.15;;;;;;;20.35;96.16;100387.69;4898839;29;20037;-77
2023/06/09 04:05:55;;;;;;;18.60;11.55;;;;;;;20.58;95.23;100391.91;4899974;29;20057;-77
2023/06/09 04:08:23;;;;;;;18.70;11.55;;;;;;;20.62;96.73;100390.84;4898528;29;20519;-77
2023/06/09 04:10:51;;;;;;;20.52;11.80;;;;;;;20.46;94.70;100390.78;4899997;29;20063;-77
2023/06/09 04:13:19;;;;;;;16.35;10.32;;;;;;;20.62;93.80;100396.41;4898640;29;20041;-77
2023/06/09 04:15:47;;;;;;;17.63;10.65;;;;;;;20.61;94.42;100399.53;4899811;29;20051;-78
2023/06/09 04:18:17;;;;;;;17.35;10.70;;;;;;;20.60;93.55;100401.50;4883054;29;20052;-77
2023/06/09 04:20:45;;;;;;;16.92;11.02;;;;;;;20.47;95.14;100408.28;4917536;29;20044;-78
2023/06/09 04:23:13;;;;;;;16.73;10.73;;;;;;;20.52;94.56;100410.78;4900477;29;20055;-77
2023/06/09 04:25:45;;;;;;;14.85;10.57;;;;;;;20.56;93.41;100406.16;4901537;29;20048;-78
2023/06/09 04:28:19;;;;;;;17.50;10.98;;;;;;;20.59;93.91;100407.41;4900362;29;20126;-77
2023/06/09 04:30:51;;;;;;;14.60;10.18;;;;;;;20.74;94.49;100397.50;4901679;29;20410;-75
2023/06/09 04:33:20;;;;;;;19.92;11.85;;;;;;;20.76;92.92;100401.56;4918475;29;20056;-74
2023/06/09 04:35:54;;;;;;;18.50;11.55;;;;;;;20.96;92.88;100406.50;4917176;29;20056;-74
2023/06/09 04:38:25;;;;;;;14.88;10.48;;;;;;;21.20;91.43;100409.13;4917375;29;20055;-74
2023/06/09 04:40:57;;;;;;;14.60;9.60;;;;;;;21.39;90.51;100410.41;4900930;29;20066;-74
2023/06/09 04:43:28;;;;;;;16.33;10.07;;;;;;;21.53;89.82;100420.28;4916228;29;20515;-74
2023/06/09 04:45:59;;;;;;;17.45;10.57;;;;;;;21.51;89.27;100408.69;4916296;29;20044;-75
2023/06/09 04:48:29;;;;;;;13.13;9.50;;;;;;;21.56;90.81;100409.22;4918000;29;20082;-75
2023/06/09 04:51:01;;;;;;;14.30;9.70;;;;;;;21.64;90.37;100404.66;4916988;29;20044;-74
2023/06/09 04:53:35;;;;;;;14.88;10.52;;;;;;;21.70;89.41;100408.81;4901375;29;20492;-80
2023/06/09 04:56:06;;;;;;;14.07;10.10;;;;;;;21.59;89.65;100407.69;4901077;29;20040;-80
2023/06/09 04:58:38;;;;;;;;;;;;;;;21.70;89.42;100424.72;4901823;29;20048;-78
2023/06/09 05:01:06;;;;;;;16.13;10.32;;;;;;;21.58;88.53;100417.22;4901271;29;19923;-78
2023/06/09 05:03:34;;;;;;;13.60;9.80;;;;;;;21.70;88.01;100431.09;4899550;29;20059;-76
2023/06/09 05:06:02;;;;;;;14.18;10.63;;;;;;;21.82;86.74;100432.16;4897201;29;20056;-77
2023/06/09 05:08:30;;;;;;;16.02;10.65;;;;;;;21.87;85.42;100435.50;4913110;29;20052;-75
2023/06/09 05:11:03;;;;;;;18.90;9.85;;;;;;;21.88;86.09;100425.13;4900287;29;20036;-77
2023/06/09 05:13:31;;;;;;;16.25;10.77;;;;;;;21.82;85.13;100434.94;4900065;29;20055;-78
2023/06/09 05:15:59;;;;;;;19.25;11.00;;;;;;;21.85;86.36;100425.88;4898480;29;20403;-78
2023/06/09 05:18:29;;;;;;;20.48;11.27;;;;;;;21.89;84.05;100437.88;4912458;29;20048;-77
2023/06/09 05:21:00;;;;;;;16.80;10.40;;;;;;;22.15;84.24;100442.09;4886818;29;20516;-77
2023/06/09 05:23:33;;;;;;;17.02;11.13;;;;;;;22.01;83.46;100448.13;4895374;29;20040;-78
2023/06/09 05:26:02;;;;;;;15.65;10.52;;;;;;;22.18;84.06;100441.34;4899097;29;20048;-77
2023/06/09 05:28:32;;;;;;;18.17;10.75;;;;;;;22.35;83.01;100451.31;4898319;29;20060;-78
2023/06/09 05:31:01;;;;;;;13.48;9.55;;;;;;;22.35;80.47;100445.72;4915201;29;20048;-77
2023/06/09 05:33:29;;;;;;;15.80;10.43;;;;;;;22.37;81.75;100456.50;4905369;29;20395;-74
2023/06/09 05:35:58;;;;;;;19.15;10.18;;;;;;;22.45;80.41;100447.13;4900282;29;20051;-74
2023/06/09 05:38:26;;;;;;;14.55;9.93;;;;;;;22.60;81.21;100461.41;4899070;29;20419;-74
2023/06/09 05:40:54;;;;;;;13.93;9.90;;;;;;;22.59;81.23;100462.56;4916959;29;20051;-74
2023/06/09 05:43:27;;;;;;;13.82;9.68;;;;;;;22.75;79.57;100460.53;4916563;29;20055;-74
2023/06/09 05:45:56;;;;;;;15.35;9.82;;;;;;;22.81;78.45;100472.19;4916859;29;20055;-75
2023/06/09 05:48:25;;;;;;;14.35;9.27;;;;;;;22.72;78.47;100460.47;4916863;29;20048;-75
2023/06/09 05:50:53;;;;;;;12.75;9.35;;;;;;;22.87;77.39;100456.78;4916929;29;20498;-75
2023/06/09 05:53:21;;;;;;;13.10;8.88;;;;;;;23.08;76.15;100473.13;4916722;29;20048;-75
2023/06/09 05:55:52;;;;;;;12.77;8.90;;;;;;;23.06;76.06;100477.47;4916914;29;20048;-75
2023/06/09 05:58:20;;;;;;;16.80;10.07;;;;;;;22.92;75.75;100470.44;4916127;29;20056;-75
2023/06/09 06:00:49;;;;;;;13.30;9.45;;;;;;;23.06;76.34;100475.50;4916491;29;20484;-75
2023/06/09 06:03:17;;;;;;;12.23;9.85;;;;;;;23.12;74.85;100483.56;4916479;29;20040;-75
2023/06/09 06:05:45;;;;;;;13.63;8.60;;;;;;;23.23;74.83;100484.59;4916364;29;20040;-75
2023/06/09 06:08:13;;;;;;;13.88;9.68;;;;;;;23.31;76.07;100480.78;4899187;29;20048;-75
2023/06/09 06:10:41;;;;;;;13.88;8.50;;;;;;;23.41;75.88;100484.16;4916360;29;20056;-75
2023/06/09 06:13:09;;;;;;;14.73;9.93;;;;;;;23.49;75.20;100486.72;4916396;29;20055;-75
2023/06/09 06:15:37;;;;;;;13.13;9.40;;;;;;;23.65;73.92;100482.19;4916266;29;20040;-75
2023/06/09 06:18:05;;;;;;;15.27;9.57;;;;;;;23.72;72.84;100493.47;4899295;29;20537;-75
2023/06/09 06:20:33;;;;;;;11.48;8.60;;;;;;;23.70;71.60;100484.66;4916321;29;20067;-75
2023/06/09 06:23:02;;;;;;;12.68;8.77;;;;;;;23.69;71.75;100488.63;4916276;29;20078;-75
2023/06/09 06:25:30;;;;;;;13.25;8.13;;;;;;;23.75;72.33;100473.97;4916186;29;20055;-75
2023/06/09 06:27:58;;;;;;;13.23;8.57;;;;;;;23.89;74.71;100476.19;4916034;29;20055;-75
2023/06/09 06:30:27;;;;;;;9.85;7.78;;;;;;;23.79;71.71;100474.03;4916015;29;20048;-75
2023/06/09 06:32:55;;;;;;;12.02;8.27;;;;;;;23.89;71.30;100484.59;4914825;29;20048;-75
2023/06/09 06:35:27;;;;;;;10.30;7.82;;;;;;;24.06;70.78;100487.22;4915982;29;20052;-75
2023/06/09 06:37:56;;;;;;;9.93;7.28;;;;;;;23.87;70.56;100474.97;4916105;29;20044;-75
2023/06/09 06:40:25;;;;;;;12.70;7.80;;;;;;;24.07;69.70;100484.09;4916079;29;20060;-75
2023/06/09 06:42:53;;;;;;;13.45;8.27;;;;;;;23.98;69.93;100477.91;4914667;29;20055;-75
2023/06/09 06:45:28;;;;;;;10.95;8.82;;;;;;;24.12;69.33;100494.97;4883274;29;20060;-75
2023/06/09 06:47:56;;;;;;;11.70;8.88;;;;;;;24.08;69.90;100482.91;4898730;29;20055;-75
2023/06/09 06:50:24;;;;;;;9.57;7.28;;;;;;;24.40;69.81;100495.75;4915804;29;20048;-75
2023/06/09 06:52:53;;;;;;;11.90;7.93;;;;;;;24.37;68.86;100488.09;4915816;29;20514;-75
2023/06/09 06:55:21;;;;;;;12.40;8.43;;;;;;;24.51;67.39;100498.69;4915787;29;20059;-75
2023/06/09 06:57:49;;;;;;;11.75;7.80;;;;;;;24.51;68.27;100490.31;4915801;29;20055;-75
2023/06/09 07:00:18;;;;;;;11.13;7.85;;;;;;;24.56;68.25;100487.19;4915741;29;20052;-75
2023/06/09 07:02:46;;;;;;;15.20;8.23;;;;;;;24.54;67.29;100486.78;4915743;29;20051;-75
2023/06/09 07:05:16;;;;;;;11.10;7.20;;;;;;;24.70;67.76;100498.56;4915841;29;20407;-75
2023/06/09 07:07:44;;;;;;;9.18;7.25;;;;;;;24.83;68.03;100509.56;4919621;29;20044;-75
2023/06/09 07:10:12;;;;;;;11.45;7.32;;;;;;;24.90;67.34;100498.47;4919560;29;20060;-75
2023/06/09 07:12:41;;;;;;;10.05;7.25;;;;;;;24.93;67.05;100508.88;4919584;29;20056;-76
2023/06/09 07:15:10;;;;;;;10.50;7.65;;;;;;;24.94;66.64;100504.09;4902538;29;20052;-75
2023/06/09 07:17:38;;;;;;;8.73;7.03;;;;;;;24.91;65.98;100508.47;4919498;29;20044;-76
2023/06/09 07:20:07;;;;;;;9.10;6.88;;;;;;;24.95;66.65;100512.13;4902370;29;20048;-76
2023/06/09 07:22:39;;;;;;;10.80;7.55;;;;;;;25.05;67.59;100515.41;4919346;29;20055;-75
2023/06/09 07:25:09;;;;;;;8.95;6.72;;;;;;;25.09;65.55;100519.84;4919370;29;20079;-76
2023/06/09 07:27:37;;;;;;;8.40;6.20;;;;;;;25.14;66.67;100523.50;4918899;29;20059;-76
2023/06/09 07:30:05;;;;;;;11.23;7.15;;;;;;;25.23;66.96;100532.44;4919179;29;20056;-76
2023/06/09 07:32:34;;;;;;;10.18;7.38;;;;;;;25.18;66.38;100536.34;4919116;29;20047;-76
2023/06/09 07:35:02;;;;;;;9.25;7.18;;;;;;;25.25;66.02;100534.81;4919177;29;20051;-76
2023/06/09 07:37:31;;;;;;;9.52;7.25;;;;;;;25.14;67.14;100532.72;4919155;29;20512;-76
2023/06/09 07:39:59;;;;;;;10.27;7.72;;;;;;;25.17;67.59;100531.16;4919001;29;20071;-76
2023/06/09 07:42:48;;;;;;;12.00;8.07;;;;;;;25.30;65.46;100534.50;4905098;29;20052;-76
2023/06/09 07:45:17;;;;;;;13.05;8.13;;;;;;;25.27;66.08;100522.06;4918888;29;20044;-76
2023/06/09 07:47:45;;;;;;;11.15;7.95;;;;;;;25.41;65.86;100527.00;4902119;29;20048;-75
2023/06/09 07:50:14;;;;;;;10.50;7.47;;;;;;;25.74;64.04;100527.38;4918752;29;20403;-76
2023/06/09 07:52:41;;;;;;;10.88;7.68;;;;;;;25.89;64.51;100528.28;4917662;29;20055;-75
2023/06/09 07:55:09;;;;;;;11.77;8.90;;;;;;;25.83;62.80;100532.66;4918837;29;20047;-75
2023/06/09 07:57:43;;;;;;;13.02;9.43;;;;;;;25.85;64.48;100522.66;4902927;29;20052;-75
2023/06/09 08:00:13;;;;;;;12.38;9.32;;;;;;;25.85;64.48;100521.88;4918708;29;20499;-76
2023/06/09 08:02:42;;;;;;;13.93;9.32;;;;;;;25.60;62.77;100523.25;4918762;29;20056;-76
2023/06/09 08:05:21;;;;;;;12.02;8.43;;;;;;;25.68;64.60;100526.09;4901759;29;20048;-75
2023/06/09 08:07:49;;;;;;;11.68;8.65;;;;;;;25.73;63.58;100520.97;4918481;29;20048;-76
2023/06/09 08:10:17;;;;;;;11.23;7.80;;;;;;;25.88;63.73;100523.88;4918510;29;20044;-75
2023/06/09 08:12:46;;;;;;;12.10;8.50;;;;;;;25.87;62.70;100530.69;4918615;29;20055;-75
2023/06/09 08:15:14;;;;;;;12.13;8.65;;;;;;;25.66;61.45;100525.69;4918412;29;20055;-75
2023/06/09 08:17:42;;;;;;;14.20;8.57;;;;;;;25.86;62.68;100543.09;4900308;29;20514;-75
2023/06/09 08:20:11;;;;;;;11.35;8.40;;;;;;;25.84;64.41;100537.06;4918456;29;20063;-75
2023/06/09 08:22:39;;;;;;;14.48;9.88;;;;;;;25.82;61.69;100545.06;4918314;29;20392;-75
2023/06/09 08:25:07;;;;;;;10.90;7.45;;;;;;;25.82;63.53;100526.25;4918296;29;20040;-75
2023/06/09 08:27:36;;;;;;;9.85;7.65;;;;;;;26.04;62.56;100534.81;4917975;29;20487;-75
2023/06/09 08:30:04;;;;;;;11.32;7.78;;;;;;;26.08;62.48;100529.25;4918086;29;20052;-75
2023/06/09 08:32:33;;;;;;;9.88;8.15;;;;;;;25.91;61.41;100523.13;4918234;29;20052;-75
2023/06/09 08:35:06;;;;;;;15.93;8.85;;;;;;;26.13;62.38;100520.47;4901367;29;20043;-75
2023/06/09 08:37:36;;;;;;;12.60;8.48;;;;;;;26.19;63.02;100523.75;4918103;29;20431;-75
2023/06/09 08:40:07;;;;;;;14.93;9.50;;;;;;;26.21;62.54;100538.97;4918077;29;20051;-75
2023/06/09 08:42:38;;;;;;;16.53;10.93;;;;;;;26.28;62.06;100533.44;4918141;29;20044;-75
2023/06/09 08:45:07;;;;;;;12.90;9.32;;;;;;;26.09;62.49;100536.50;4918096;29;20056;-75
2023/06/09 08:47:37;;;;;;;11.18;7.72;;;;;;;26.16;63.13;100536.53;4917878;29;20052;-75
2023/06/09 08:50:07;;;;;;;12.38;8.00;;;;;;;26.19;63.08;100530.13;4918090;29;20048;-75
2023/06/09 08:52:37;;;;;;;11.30;8.52;;;;;;;26.22;62.29;100520.13;4917910;29;20488;-75
2023/06/09 08:55:06;;;;;;;15.43;10.02;;;;;;;26.21;62.13;100533.38;4917632;29;20052;-75
2023/06/09 08:57:35;;;;;;;11.20;8.27;;;;;;;26.48;62.66;100538.78;4917936;29;20051;-75
2023/06/09 09:00:11;;;;;;;13.90;9.73;;;;;;;26.22;61.59;100534.16;4917909;29;20410;-75
2023/06/09 09:02:49;;;;;;;13.07;8.27;;;;;;;26.38;62.25;100531.91;4916835;29;20047;-75
2023/06/09 09:05:17;;;;;;;12.32;8.88;;;;;;;26.43;62.17;100527.91;4917493;29;20055;-75
2023/06/09 09:07:45;;;;;;;10.50;8.00;;;;;;;26.47;62.73;100523.16;4917593;29;20044;-75
2023/06/09 09:10:14;;;;;;;15.45;10.10;;;;;;;26.49;61.72;100534.78;4936375;29;20055;-75
2023/06/09 09:12:50;;;;;;;15.15;9.32;;;;;;;26.51;62.46;100528.78;4919738;29;20062;-75
2023/06/09 09:15:24;;;;;;;12.90;9.63;;;;;;;26.53;60.34;100524.38;4936338;29;20048;-76
2023/06/09 09:17:52;;;;;;;12.65;9.77;;;;;;;26.55;59.67;100524.78;4919651;29;20402;-76
2023/06/09 09:20:31;;;;;;;13.63;9.40;;;;;;;26.77;61.47;100526.91;4936290;29;20055;-75
2023/06/09 09:22:59;;;;;;;11.73;8.43;;;;;;;26.76;61.68;100528.91;4936369;29;20051;-75
2023/06/09 09:25:28;;;;;;;13.20;8.73;;;;;;;26.67;60.88;100522.84;4936173;29;20056;-75
2023/06/09 09:28:01;;;;;;;12.13;9.50;;;;;;;26.71;61.45;100512.44;4934570;29;20414;-75
2023/06/09 09:30:55;;;;;;;15.07;9.63;;;;;;;26.91;61.10;100520.56;4936012;29;20051;-76
2023/06/09 09:33:26;;;;;;;13.30;8.68;;;;;;;26.91;59.15;100521.41;4936266;29;20530;-76
2023/06/09 09:35:57;;;;;;;11.43;8.73;;;;;;;26.79;59.57;100502.84;4936015;29;20396;-76
2023/06/09 09:38:30;;;;;;;14.13;9.02;;;;;;;26.90;59.72;100504.91;4936067;29;20491;-76
2023/06/09 09:41:00;;;;;;;12.02;8.73;;;;;;;26.91;58.53;100503.72;4935958;29;20051;-76
2023/06/09 09:43:28;;;;;;;16.08;9.90;;;;;;;26.88;60.07;100499.69;4934780;29;20048;-75
2023/06/09 09:46:05;;;;;;;15.68;9.85;;;;;;;26.94;58.83;100489.72;4935766;29;20044;-76
2023/06/09 09:48:36;;;;;;;13.15;9.23;;;;;;;27.15;58.78;100498.59;4935731;29;20048;-75
2023/06/09 09:51:06;;;;;;;13.25;9.07;;;;;;;27.31;58.57;100490.63;4935661;29;20394;-75
2023/06/09 09:53:35;;;;;;;13.18;9.73;;;;;;;27.45;59.35;100489.03;4935672;29;20054;-76
2023/06/09 09:56:04;;;;;;;10.75;9.27;;;;;;;27.45;58.41;100487.03;4935624;29;20048;-75
2023/06/09 09:58:36;;;;;;;13.85;8.80;;;;;;;27.52;56.08;100488.25;4935691;29;20368;-75
2023/06/09 10:01:06;;;;;;;11.80;8.35;;;;;;;27.45;57.60;100484.22;4935622;29;20051;-75
2023/06/09 10:03:38;;;;;;;14.02;9.35;;;;;;;27.52;57.61;100480.63;4934282;29;20060;-75
2023/06/09 10:06:10;;;;;;;12.18;9.23;;;;;;;27.87;56.47;100483.88;4935516;29;20074;-76
2023/06/09 10:08:42;;;;;;;11.80;7.97;;;;;;;28.00;56.93;100487.09;4935430;29;20479;-75
2023/06/09 10:11:12;;;;;;;15.07;8.57;;;;;;;27.68;57.03;100473.84;4935300;29;20074;-75
2023/06/09 10:13:41;;;;;;;10.57;7.40;;;;;;;27.81;56.47;100480.66;4935399;29;20043;-76
2023/06/09 10:16:11;;;;;;;12.77;8.57;;;;;;;27.83;56.82;100474.63;4934217;29;20063;-75
2023/06/09 10:18:41;;;;;;;11.48;8.43;;;;;;;28.07;54.97;100475.00;4927880;29;20048;-75
2023/06/09 10:21:11;;;;;;;12.60;7.07;;;;;;;28.33;57.54;100470.97;4915205;29;20384;-75
2023/06/09 10:23:40;;;;;;;9.82;7.57;;;;;;;28.26;59.25;100466.16;4883921;29;20044;-75
2023/06/09 10:26:10;;;;;;;11.15;7.53;;;;;;;28.55;56.55;100468.91;4897379;29;20053;-75
2023/06/09 10:28:39;;;;;;;10.45;7.70;;;;;;;28.67;58.14;100459.22;4915509;29;20408;-75
2023/06/09 10:31:11;;;;;;;10.63;8.07;;;;;;;28.17;55.83;100466.59;4916197;29;20060;-76
2023/06/09 10:33:44;;;;;;;12.20;8.13;;;;;;;28.27;54.96;100461.34;4915413;29;20495;-76
2023/06/09 10:36:12;;;;;;;10.32;8.00;;;;;;;28.40;55.22;100458.91;4912597;29;20044;-75
2023/06/09 10:38:42;;;;;;;11.18;8.65;;;;;;;28.27;53.53;100458.53;4915496;29;20048;-76
2023/06/09 10:41:12;;;;;;;12.05;8.48;;;;;;;28.15;55.51;100463.34;4914807;29;20055;-76
2023/06/09 10:44:08;;;;;;;12.85;9.15;;;;;;;27.82;54.44;100461.78;4915993;29;20052;-75
2023/06/09 10:46:48;;;;;;;10.98;8.15;;;;;;;28.23;53.96;100457.72;4914856;29;20044;-76
2023/06/09 10:49:39;;;;;;;11.95;8.13;;;;;;;28.48;55.28;100451.25;4915292;29;20385;-76
2023/06/09 10:52:28;;;;;;;9.02;7.13;;;;;;;28.60;52.57;100448.00;4915914;29;20395;-75
2023/06/09 10:55:13;;;;;;;10.82;8.02;;;;;;;28.47;51.29;100441.19;4915721;29;20487;-75
2023/06/09 10:57:43;;;;;;;11.90;7.05;;;;;;;28.28;53.41;100432.00;4915963;29;20395;-75
2023/06/09 11:00:17;;;;;;;10.25;7.10;;;;;;;28.17;53.53;100438.44;4915862;29;20126;-76
2023/06/09 11:03:14;;;;;;;10.35;7.82;;;;;;;28.08;52.74;100452.13;4898965;29;20062;-76
2023/06/09 11:05:59;;;;;;;11.88;8.75;;;;;;;27.97;53.23;100440.91;4915568;29;20404;-76
2023/06/09 11:08:47;;;;;;;;;;;;;;;28.07;53.14;100450.53;4916038;29;20051;-76
2023/06/09 11:11:16;;;;;;;12.15;8.45;;;;;;;28.04;54.36;100435.25;4915515;29;19930;-76
2023/06/09 11:13:47;;;;;;;10.80;8.15;;;;;;;28.12;53.31;100435.22;4915793;29;20052;-76
2023/06/09 11:16:17;;;;;;;11.05;7.65;;;;;;;28.12;53.58;100441.69;4915559;29;20499;-75
2023/06/09 11:19:19;;;;;;;9.43;7.78;;;;;;;28.24;55.18;100432.00;4897963;29;20076;-75
2023/06/09 11:22:05;;;;;;;12.90;8.45;;;;;;;28.11;55.34;100434.41;4915609;29;20051;-76
2023/06/09 11:24:52;;;;;;;11.82;8.63;;;;;;;28.33;54.63;100442.06;4915695;29;20049;-75
2023/06/09 11:27:23;;;;;;;11.07;8.18;;;;;;;28.22;54.12;100427.97;4915552;29;20052;-75
2023/06/09 11:30:11;;;;;;;10.48;8.02;;;;;;;28.42;55.53;100431.97;4898404;29;20087;-76
2023/06/09 11:32:48;;;;;;;10.30;7.70;;;;;;;28.49;55.03;100431.13;4915520;29;20074;-75